Terminal Aerodrome Forecast
Issued by NWS Tampa Bay Area, FL

Home | Current Version | Previous Version | Text Only | Print | Product List | Glossary On
Versions: 1 2 3 4 5 6 7 8 9 10 11 12 13 14 15 16 17 18 19 20 21 22 23 24 25
000
FTUS42 KTBW 251125
TAFTPA
TAF
KTPA 251125Z 2512/2612 09006KT P6SM FEW025 FEW120 SCT250
     FM251400 12008KT P6SM SCT030 SCT250
     FM252100 13009KT P6SM VCTS BKN050CB BKN250
     FM260000 10006KT P6SM VCTS SCT030CB BKN050
     FM260300 09005KT P6SM SCT040 SCT100 BKN250=

USA.gov is the U.S. government's official web portal to all federal, state and local government web resources and services.